Time;durP1;ratioP1;P1;durP2;ratioP2;P2;SDS_P1;SDS_P2;PMS_P1;PMS_P2;Temp;Humidity;BMP_temperature;BMP_pressure;BME280_temperature;BME280_humidity;BME280_pressure;Samples;Min_cycle;Max_cycle;Signal;HPM_P1;HPM_P2
2023/10/05 00:01:27;;;;;;;10.83;2.90;;;12.60;99.90;;;;;;5004630;28;20193;-44
2023/10/05 00:03:53;;;;;;;9.57;3.27;;;12.70;99.90;;;;;;5003759;28;20221;-44
2023/10/05 00:06:25;;;;;;;10.97;3.10;;;12.70;99.90;;;;;;5005443;28;20189;-44
2023/10/05 00:08:53;;;;;;;12.57;3.07;;;12.70;99.90;;;;;;5002620;28;20177;-41
2023/10/05 00:11:36;;;;;;;7.07;2.90;;;12.70;99.90;;;;;;5002896;28;20200;-44
2023/10/05 00:14:10;;;;;;;8.13;2.67;;;12.70;99.90;;;;;;5004708;28;20197;-42
2023/10/05 00:16:36;;;;;;;7.13;3.20;;;12.70;99.90;;;;;;5006266;28;20254;-44
2023/10/05 00:19:09;;;;;;;10.00;3.40;;;12.70;99.90;;;;;;5006517;28;20654;-44
2023/10/05 00:21:36;;;;;;;10.87;3.73;;;12.70;99.90;;;;;;5005549;28;20267;-43
2023/10/05 00:24:03;;;;;;;12.13;4.07;;;12.70;99.90;;;;;;5006444;28;20281;-44
2023/10/05 00:26:33;;;;;;;8.23;4.00;;;12.70;99.90;;;;;;4992858;28;20173;-42
2023/10/05 00:31:28;;;;;;;7.30;3.47;;;12.60;99.90;;;;;;5004577;28;20189;-42
2023/10/05 00:33:56;;;;;;;10.13;3.30;;;12.60;99.90;;;;;;5003317;28;20659;-47
2023/10/05 00:36:26;;;;;;;9.10;3.20;;;12.60;99.90;;;;;;4997911;28;20561;-47
2023/10/05 00:38:52;;;;;;;12.20;3.93;;;12.60;99.90;;;;;;4996749;28;20651;-47
2023/10/05 00:41:18;;;;;;;8.83;3.47;;;12.60;99.90;;;;;;4996713;28;20203;-47
2023/10/05 00:43:49;;;;;;;13.63;3.17;;;12.50;99.90;;;;;;4998622;28;20574;-47
2023/10/05 00:46:15;;;;;;;10.10;2.80;;;12.50;99.90;;;;;;4998000;28;20183;-46
2023/10/05 00:49:04;;;;;;;14.67;3.57;;;12.50;99.90;;;;;;4997419;28;20189;-48
2023/10/05 00:51:32;;;;;;;15.27;3.60;;;12.50;99.90;;;;;;4996412;28;20545;-46
2023/10/05 00:54:10;;;;;;;10.17;3.40;;;12.50;99.90;;;;;;4996469;28;20225;-49
2023/10/05 00:56:41;;;;;;;8.40;3.27;;;12.60;99.90;;;;;;4997384;28;20225;-49
2023/10/05 00:59:10;;;;;;;11.43;4.50;;;12.60;99.90;;;;;;4997411;28;20539;-47
2023/10/05 01:02:21;;;;;;;13.40;4.57;;;12.60;99.90;;;;;;4996075;28;20183;-45
2023/10/05 01:04:28;;;;;;;11.07;3.37;;;12.70;99.90;;;;;;4993691;28;20256;-48
2023/10/05 01:07:07;;;;;;;6.13;3.27;;;12.70;99.90;;;;;;4996072;28;20178;-47
2023/10/05 01:09:54;;;;;;;10.30;2.80;;;12.80;99.90;;;;;;4997216;28;20210;-49
2023/10/05 01:14:52;;;;;;;8.33;3.23;;;12.80;99.90;;;;;;4997196;28;20261;-48
2023/10/05 01:17:22;;;;;;;11.50;3.10;;;12.80;99.90;;;;;;4997188;28;20179;-46
2023/10/05 01:19:54;;;;;;;8.40;2.80;;;12.80;99.90;;;;;;4996820;28;20669;-47
2023/10/05 01:22:22;;;;;;;6.13;3.20;;;12.80;99.90;;;;;;4995513;28;20301;-48
2023/10/05 01:24:51;;;;;;;12.23;3.40;;;12.90;99.90;;;;;;4997140;28;20206;-46
2023/10/05 01:27:19;;;;;;;6.07;2.30;;;12.80;99.90;;;;;;4996861;28;20214;-48
2023/10/05 01:29:45;;;;;;;8.17;2.90;;;12.80;99.90;;;;;;4996877;28;20550;-48
2023/10/05 01:32:11;;;;;;;9.77;2.93;;;12.80;99.90;;;;;;4996772;28;20189;-47
2023/10/05 01:34:37;;;;;;;9.07;2.73;;;12.90;99.90;;;;;;4995518;28;20235;-46
2023/10/05 01:37:05;;;;;;;7.90;2.80;;;12.80;99.90;;;;;;4994701;28;20194;-47
2023/10/05 01:39:35;;;;;;;9.30;2.67;;;12.90;99.90;;;;;;4995558;28;20202;-47
2023/10/05 01:42:05;;;;;;;12.53;2.73;;;12.90;99.90;;;;;;4996768;28;20174;-48
2023/10/05 01:44:36;;;;;;;7.07;2.30;;;12.90;99.90;;;;;;4996740;28;20163;-49
2023/10/05 01:47:02;;;;;;;11.70;3.03;;;12.90;99.90;;;;;;4996432;28;20154;-45
2023/10/05 01:49:28;;;;;;;10.67;3.10;;;12.90;99.90;;;;;;4996117;28;20282;-47
2023/10/05 01:51:54;;;;;;;5.40;2.33;;;12.90;99.90;;;;;;4996517;28;20602;-46
2023/10/05 01:54:25;;;;;;;13.10;3.20;;;12.90;99.90;;;;;;4996092;28;20213;-48
2023/10/05 01:56:50;;;;;;;9.47;2.60;;;12.90;99.90;;;;;;4996885;28;20176;-48
2023/10/05 01:59:21;;;;;;;9.30;2.87;;;12.90;99.90;;;;;;4994731;28;20553;-46
2023/10/05 02:01:47;;;;;;;10.07;2.60;;;12.80;99.90;;;;;;4995841;28;20166;-47
2023/10/05 02:04:17;;;;;;;7.00;2.60;;;12.90;99.90;;;;;;4995005;28;20178;-46
2023/10/05 02:06:48;;;;;;;8.53;2.80;;;12.90;99.90;;;;;;4995832;28;20262;-48
2023/10/05 02:09:19;;;;;;;6.83;2.30;;;12.90;99.90;;;;;;4995759;28;20167;-46
2023/10/05 02:11:47;;;;;;;5.83;2.10;;;12.80;99.90;;;;;;4995795;28;20162;-47
2023/10/05 02:14:14;;;;;;;6.60;2.10;;;12.80;99.90;;;;;;4995789;28;20178;-46
2023/10/05 02:16:40;;;;;;;7.87;2.40;;;12.80;99.90;;;;;;4995620;28;20193;-48
2023/10/05 02:19:07;;;;;;;7.20;2.27;;;12.80;99.90;;;;;;4995414;28;20272;-47
2023/10/05 02:21:36;;;;;;;4.53;1.80;;;12.80;99.90;;;;;;4995592;28;20209;-47
2023/10/05 02:24:36;;;;;;;10.47;2.80;;;12.80;99.90;;;;;;4995412;28;20222;-47
2023/10/05 02:29:29;;;;;;;8.07;2.60;;;12.70;99.90;;;;;;4995675;28;20194;-45
2023/10/05 02:37:24;;;;;;;7.27;2.40;;;12.70;99.90;;;;;;4996042;28;20620;-47
2023/10/05 02:39:51;;;;;;;9.40;2.53;;;12.70;99.90;;;;;;4994113;28;20244;-46
2023/10/05 02:42:21;;;;;;;8.83;2.53;;;12.70;99.90;;;;;;4995632;28;20288;-43
2023/10/05 02:44:49;;;;;;;6.50;2.37;;;12.70;99.90;;;;;;4996352;28;20175;-43
2023/10/05 02:47:22;;;;;;;7.27;2.37;;;12.70;99.90;;;;;;4996270;28;20264;-48
2023/10/05 02:49:49;;;;;;;8.17;2.30;;;12.80;99.90;;;;;;4995317;28;20630;-47
2023/10/05 02:52:16;;;;;;;7.60;2.20;;;12.80;99.90;;;;;;4994920;28;20273;-47
2023/10/05 02:54:49;;;;;;;6.17;2.20;;;12.70;99.90;;;;;;4995317;28;20190;-47
2023/10/05 02:57:19;;;;;;;9.33;2.20;;;12.80;99.90;;;;;;4994900;28;20237;-47
2023/10/05 02:59:46;;;;;;;8.77;2.30;;;12.80;99.90;;;;;;4993846;28;20210;-48
2023/10/05 03:02:16;;;;;;;7.60;2.27;;;12.80;99.90;;;;;;4993355;28;20590;-48
2023/10/05 03:07:16;;;;;;;8.80;2.70;;;12.70;99.90;;;;;;4994856;28;20592;-48
2023/10/05 03:09:44;;;;;;;4.97;1.90;;;12.70;99.90;;;;;;4994740;28;20674;-46
2023/10/05 03:12:13;;;;;;;7.70;2.10;;;12.70;99.90;;;;;;4994608;28;20178;-46
2023/10/05 03:14:44;;;;;;;4.07;1.70;;;12.70;99.90;;;;;;4994575;28;20654;-48
2023/10/05 03:17:13;;;;;;;9.73;2.33;;;12.70;99.90;;;;;;4993355;28;20171;-45
2023/10/05 03:19:40;;;;;;;4.60;1.93;;;12.70;99.90;;;;;;4994722;28;20206;-48
2023/10/05 03:22:12;;;;;;;5.73;2.43;;;12.70;99.90;;;;;;4993299;28;20182;-48
2023/10/05 03:24:38;;;;;;;4.40;2.00;;;12.70;99.90;;;;;;4994373;28;20621;-47
2023/10/05 03:27:07;;;;;;;6.57;2.07;;;12.70;99.90;;;;;;4993320;28;20186;-47
2023/10/05 03:29:35;;;;;;;6.17;2.20;;;12.70;99.90;;;;;;4994304;28;20202;-46
2023/10/05 03:34:39;;;;;;;10.83;2.37;;;12.70;99.90;;;;;;4994380;28;20166;-48
2023/10/05 03:37:12;;;;;;;5.60;1.90;;;12.70;99.90;;;;;;4994481;28;20174;-48
2023/10/05 03:42:22;;;;;;;8.70;2.57;;;12.70;99.90;;;;;;4994758;28;20563;-47
2023/10/05 03:45:16;;;;;;;5.03;2.07;;;12.70;99.90;;;;;;4993323;28;20175;-47
2023/10/05 03:47:38;;;;;;;5.30;2.90;;;12.70;99.90;;;;;;4993963;28;20190;-47
2023/10/05 03:50:05;;;;;;;10.77;2.20;;;12.70;99.90;;;;;;4994586;28;20202;-47
2023/10/05 03:52:32;;;;;;;7.37;2.10;;;12.70;99.90;;;;;;4994444;28;20496;-41
2023/10/05 03:55:09;;;;;;;6.57;2.20;;;12.70;99.90;;;;;;4994525;28;20201;-44
2023/10/05 03:57:35;;;;;;;7.57;1.90;;;12.60;99.90;;;;;;4994211;28;20170;-46
2023/10/05 04:00:16;;;;;;;5.47;2.07;;;12.70;99.90;;;;;;4999441;28;20233;-44
2023/10/05 04:02:43;;;;;;;11.43;2.33;;;12.70;99.90;;;;;;4999241;28;20620;-42
2023/10/05 04:05:10;;;;;;;7.63;1.97;;;12.70;99.90;;;;;;5000821;28;20220;-43
2023/10/05 04:07:37;;;;;;;5.20;1.97;;;12.70;99.90;;;;;;5000681;28;20189;-44
2023/10/05 04:10:07;;;;;;;5.77;2.30;;;12.70;99.90;;;;;;5001017;28;20276;-41
2023/10/05 04:12:34;;;;;;;9.03;2.47;;;12.70;99.90;;;;;;5000329;28;20708;-42
2023/10/05 04:15:00;;;;;;;8.73;2.23;;;12.70;99.90;;;;;;5000417;28;20205;-42
2023/10/05 04:17:27;;;;;;;8.93;2.23;;;12.70;99.90;;;;;;4999499;28;20237;-41
2023/10/05 04:19:53;;;;;;;5.23;2.40;;;12.70;99.90;;;;;;4982716;28;20212;-40
2023/10/05 04:22:19;;;;;;;8.30;2.23;;;12.70;99.90;;;;;;4999112;28;20198;-43
2023/10/05 04:24:45;;;;;;;8.13;2.03;;;12.70;99.90;;;;;;5000502;28;20205;-45
2023/10/05 04:27:18;;;;;;;6.77;2.40;;;12.70;99.90;;;;;;5000233;28;20185;-42
2023/10/05 04:29:44;;;;;;;9.63;2.27;;;12.70;99.90;;;;;;5000783;28;20190;-43
2023/10/05 04:32:15;;;;;;;6.47;2.10;;;12.70;99.90;;;;;;5000681;28;20546;-42
2023/10/05 04:34:41;;;;;;;9.60;2.03;;;12.60;99.90;;;;;;5000403;28;20170;-44
2023/10/05 04:37:07;;;;;;;6.10;2.00;;;12.60;99.90;;;;;;5000244;28;20749;-44
2023/10/05 04:39:36;;;;;;;6.03;2.40;;;12.60;99.90;;;;;;5000247;28;20280;-44
2023/10/05 04:42:06;;;;;;;5.13;2.30;;;12.60;99.90;;;;;;5000079;28;20227;-43
2023/10/05 04:44:34;;;;;;;5.90;1.90;;;12.50;99.90;;;;;;5000250;28;20215;-44
2023/10/05 04:47:00;;;;;;;12.53;2.30;;;12.60;99.90;;;;;;4999165;28;20292;-43
2023/10/05 04:49:27;;;;;;;4.43;2.00;;;12.50;99.90;;;;;;5000216;28;20285;-43
2023/10/05 04:51:56;;;;;;;11.53;2.30;;;12.40;99.90;;;;;;4999127;28;20178;-47
2023/10/05 04:54:28;;;;;;;12.60;2.30;;;12.40;99.90;;;;;;5000094;28;20667;-47
2023/10/05 04:56:54;;;;;;;8.87;2.40;;;12.40;99.90;;;;;;4999600;28;20189;-48
2023/10/05 04:59:37;;;;;;;6.53;2.90;;;12.40;99.90;;;;;;5000753;28;20280;-48
2023/10/05 05:05:21;;;;;;;11.40;2.50;;;12.40;99.90;;;;;;4985187;28;20190;-47
2023/10/05 05:07:49;;;;;;;5.67;1.80;;;12.40;99.90;;;;;;4999209;28;20169;-47
2023/10/05 05:10:20;;;;;;;6.70;2.50;;;12.40;99.90;;;;;;4998275;28;20198;-47
2023/10/05 05:12:47;;;;;;;11.97;2.37;;;12.40;99.90;;;;;;4996321;28;20190;-47
2023/10/05 05:15:15;;;;;;;9.83;2.20;;;12.40;99.90;;;;;;4998769;28;20217;-46
2023/10/05 05:17:43;;;;;;;6.67;2.03;;;12.30;99.90;;;;;;4997036;28;20197;-47
2023/10/05 05:20:14;;;;;;;12.00;3.17;;;12.40;99.90;;;;;;4998092;28;20206;-47
2023/10/05 05:22:46;;;;;;;5.67;2.20;;;12.30;99.90;;;;;;4998130;28;20704;-48
2023/10/05 05:25:14;;;;;;;6.57;2.57;;;12.30;99.90;;;;;;4997948;28;20200;-47
2023/10/05 05:27:41;;;;;;;7.00;2.17;;;12.40;99.90;;;;;;4997628;28;20190;-47
2023/10/05 05:30:15;;;;;;;6.50;2.47;;;12.30;99.90;;;;;;4985483;23;20231;-44
2023/10/05 05:32:43;;;;;;;11.30;3.10;;;12.30;99.90;;;;;;4958099;28;20567;-42
2023/10/05 05:35:09;;;;;;;9.70;2.53;;;12.40;99.90;;;;;;4956438;29;20187;-40
2023/10/05 05:37:36;;;;;;;12.47;2.27;;;12.40;99.90;;;;;;4957997;28;20194;-42
2023/10/05 05:40:12;;;;;;;7.90;2.07;;;12.40;99.90;;;;;;4957736;28;20207;-41
2023/10/05 05:42:39;;;;;;;11.87;3.07;;;12.40;99.90;;;;;;4957821;28;20706;-42
2023/10/05 05:45:11;;;;;;;14.90;2.70;;;12.40;99.90;;;;;;4957536;28;20180;-40
2023/10/05 05:47:37;;;;;;;13.70;3.53;;;12.40;99.90;;;;;;4957486;29;20152;-43
2023/10/05 05:50:03;;;;;;;5.90;2.40;;;12.40;99.90;;;;;;4957300;28;20199;-41
2023/10/05 05:52:29;;;;;;;9.30;2.90;;;12.40;99.90;;;;;;4957933;29;20258;-42
2023/10/05 05:54:54;;;;;;;12.23;2.67;;;12.40;99.90;;;;;;4957591;28;20287;-42
2023/10/05 05:57:20;;;;;;;7.77;2.63;;;12.40;99.90;;;;;;4956168;29;20187;-41
2023/10/05 05:59:47;;;;;;;11.20;3.00;;;12.50;99.90;;;;;;4957206;28;20282;-43
2023/10/05 06:02:13;;;;;;;11.87;2.63;;;12.50;99.90;;;;;;4957177;29;20191;-41
2023/10/05 06:04:40;;;;;;;8.50;2.40;;;12.50;99.90;;;;;;4957594;28;20180;-48
2023/10/05 06:07:13;;;;;;;11.17;2.47;;;12.50;99.90;;;;;;4956175;29;20183;-46
2023/10/05 06:09:45;;;;;;;12.43;3.03;;;12.60;99.90;;;;;;4955936;28;20200;-47
2023/10/05 06:12:12;;;;;;;8.87;2.97;;;12.60;99.90;;;;;;4957354;28;20166;-48
2023/10/05 06:14:41;;;;;;;6.90;2.17;;;12.60;99.90;;;;;;4957639;29;20259;-47
2023/10/05 06:17:07;;;;;;;8.70;2.77;;;12.60;99.90;;;;;;4957189;29;20180;-48
2023/10/05 06:19:35;;;;;;;10.13;2.57;;;12.70;99.90;;;;;;4956126;28;20279;-48
2023/10/05 06:22:03;;;;;;;7.07;2.03;;;12.70;99.90;;;;;;4957064;28;20226;-49
2023/10/05 06:24:30;;;;;;;9.03;2.23;;;12.70;99.90;;;;;;4955919;29;20202;-49
2023/10/05 06:26:56;;;;;;;10.50;2.40;;;12.80;99.90;;;;;;4957287;28;20175;-50
2023/10/05 06:29:22;;;;;;;8.97;2.43;;;12.70;99.90;;;;;;4956731;28;20219;-48
2023/10/05 06:31:48;;;;;;;8.30;1.93;;;12.80;99.90;;;;;;4957082;29;20179;-48
2023/10/05 06:34:14;;;;;;;14.33;2.53;;;12.80;99.90;;;;;;4957136;29;20190;-49
2023/10/05 06:36:41;;;;;;;8.00;2.47;;;12.80;99.90;;;;;;4956769;29;20556;-48
2023/10/05 06:39:14;;;;;;;7.13;1.93;;;12.80;99.90;;;;;;4956663;28;20231;-49
2023/10/05 06:41:42;;;;;;;11.67;2.73;;;12.90;99.90;;;;;;4956590;29;20171;-47
2023/10/05 06:44:10;;;;;;;6.47;2.23;;;12.90;99.90;;;;;;4957612;28;20219;-49
2023/10/05 06:46:37;;;;;;;7.87;2.10;;;12.90;99.90;;;;;;4956883;28;20180;-47
2023/10/05 06:49:05;;;;;;;14.53;2.30;;;12.90;99.90;;;;;;4956515;28;20327;-49
2023/10/05 06:51:31;;;;;;;11.90;2.87;;;12.90;99.90;;;;;;4955369;29;20187;-48
2023/10/05 06:53:58;;;;;;;9.57;2.90;;;13.00;99.90;;;;;;4956580;29;20681;-46
2023/10/05 06:56:26;;;;;;;8.83;2.63;;;13.00;99.90;;;;;;4956435;29;20206;-49
2023/10/05 06:58:52;;;;;;;9.03;2.50;;;13.00;99.90;;;;;;4955217;28;20191;-48
2023/10/05 07:01:21;;;;;;;9.43;2.53;;;13.00;99.90;;;;;;4956524;28;20567;-48
2023/10/05 07:03:57;;;;;;;8.43;2.77;;;13.00;99.90;;;;;;4956385;28;20214;-48
2023/10/05 07:06:24;;;;;;;6.07;1.80;;;13.10;99.90;;;;;;4955183;29;20231;-47
2023/10/05 07:08:54;;;;;;;11.10;2.20;;;13.10;99.90;;;;;;4956408;28;20687;-48
2023/10/05 07:11:20;;;;;;;9.13;2.40;;;13.10;99.90;;;;;;4955054;29;20663;-48
2023/10/05 07:13:47;;;;;;;11.33;2.50;;;13.10;99.90;;;;;;4956508;29;20183;-48
2023/10/05 07:16:16;;;;;;;6.93;2.80;;;13.10;99.90;;;;;;4956495;28;20190;-47
2023/10/05 07:18:42;;;;;;;8.33;2.27;;;13.20;99.90;;;;;;4938973;29;20559;-47
2023/10/05 07:21:08;;;;;;;7.63;2.60;;;13.20;99.90;;;;;;4955767;28;20685;-47
2023/10/05 07:23:38;;;;;;;7.57;2.60;;;13.30;99.90;;;;;;4955944;28;20262;-45
2023/10/05 07:26:06;;;;;;;11.20;2.97;;;13.30;99.90;;;;;;4955938;29;20711;-46
2023/10/05 07:28:33;;;;;;;8.43;2.20;;;13.30;99.90;;;;;;4954256;29;20207;-47
2023/10/05 07:30:59;;;;;;;10.67;3.00;;;13.30;99.90;;;;;;4955832;28;20222;-47
2023/10/05 07:33:25;;;;;;;7.30;2.40;;;13.40;99.90;;;;;;4955297;28;20698;-47
2023/10/05 07:35:53;;;;;;;14.40;2.93;;;13.40;99.90;;;;;;4955565;29;20254;-46
2023/10/05 07:38:19;;;;;;;11.60;2.60;;;13.50;99.90;;;;;;4955830;28;20187;-47
2023/10/05 07:40:47;;;;;;;5.43;2.33;;;13.50;99.90;;;;;;4954503;29;20554;-45
2023/10/05 07:43:13;;;;;;;11.00;2.27;;;13.50;99.90;;;;;;4955445;28;20210;-49
2023/10/05 07:45:38;;;;;;;9.07;2.87;;;13.60;99.90;;;;;;4956236;28;20179;-49
2023/10/05 07:48:06;;;;;;;6.57;2.20;;;13.60;99.90;;;;;;4955768;28;20172;-45
2023/10/05 07:50:34;;;;;;;9.10;2.30;;;13.70;99.90;;;;;;4955631;28;20621;-45
2023/10/05 07:53:00;;;;;;;13.33;2.77;;;13.70;99.90;;;;;;4955713;28;20267;-42
2023/10/05 07:55:27;;;;;;;10.77;2.50;;;13.80;99.90;;;;;;4955327;28;20191;-42
2023/10/05 07:57:53;;;;;;;14.77;3.20;;;13.80;99.90;;;;;;4955588;29;20187;-42
2023/10/05 08:00:21;;;;;;;9.83;2.53;;;13.90;99.90;;;;;;4955565;28;20202;-43
2023/10/05 08:02:47;;;;;;;10.07;3.03;;;13.90;99.90;;;;;;4955254;28;20210;-40
2023/10/05 08:05:15;;;;;;;9.63;2.87;;;14.00;99.90;;;;;;4955562;29;20180;-41
2023/10/05 08:07:42;;;;;;;7.27;2.40;;;14.00;99.90;;;;;;4955202;28;20187;-43
2023/10/05 08:10:15;;;;;;;7.73;2.73;;;14.10;99.90;;;;;;4954986;28;20204;-42
2023/10/05 08:12:43;;;;;;;11.10;2.63;;;14.10;99.90;;;;;;4955232;28;20167;-42
2023/10/05 08:15:12;;;;;;;11.17;2.70;;;14.20;99.90;;;;;;4955621;28;20207;-40
2023/10/05 08:17:39;;;;;;;6.23;2.40;;;14.30;99.90;;;;;;4953857;29;20191;-46
2023/10/05 08:20:06;;;;;;;7.00;2.53;;;14.30;99.90;;;;;;4955196;28;20191;-48
2023/10/05 08:22:32;;;;;;;8.07;2.30;;;14.40;99.90;;;;;;4954981;28;20218;-46
2023/10/05 08:25:00;;;;;;;10.03;2.50;;;14.40;99.90;;;;;;4955016;29;20686;-47
2023/10/05 08:27:26;;;;;;;8.23;2.37;;;14.50;99.90;;;;;;4954965;28;20183;-46
2023/10/05 08:29:52;;;;;;;10.47;2.40;;;14.50;99.90;;;;;;4953533;28;20303;-48
2023/10/05 08:32:24;;;;;;;9.63;2.70;;;14.60;99.90;;;;;;4954965;28;20263;-47
2023/10/05 08:34:50;;;;;;;6.70;2.30;;;14.60;99.90;;;;;;4955236;28;20216;-48
2023/10/05 08:37:19;;;;;;;10.53;2.40;;;14.70;99.90;;;;;;4954867;28;20184;-48
2023/10/05 08:39:46;;;;;;;9.80;2.23;;;14.70;99.90;;;;;;4955034;28;20204;-47
2023/10/05 08:42:14;;;;;;;9.03;2.37;;;14.80;99.90;;;;;;4954818;28;20226;-47
2023/10/05 08:44:41;;;;;;;6.47;2.17;;;14.80;99.90;;;;;;4955264;28;20651;-48
2023/10/05 08:47:12;;;;;;;9.13;2.40;;;14.90;99.90;;;;;;4958748;28;20538;-47
2023/10/05 08:49:43;;;;;;;9.27;2.53;;;14.90;99.90;;;;;;4958631;28;20286;-46
2023/10/05 08:52:14;;;;;;;4.33;2.20;;;15.00;99.90;;;;;;4958351;29;20167;-47
2023/10/05 08:54:43;;;;;;;12.17;2.70;;;15.00;99.90;;;;;;4958367;29;20175;-47
2023/10/05 08:57:10;;;;;;;6.43;2.07;;;15.10;99.90;;;;;;4958573;28;20192;-49
2023/10/05 08:59:39;;;;;;;6.93;2.70;;;15.10;99.90;;;;;;4958207;28;20571;-46
2023/10/05 09:02:08;;;;;;;9.70;2.40;;;15.10;99.90;;;;;;4958159;29;20202;-48
2023/10/05 09:04:47;;;;;;;12.87;2.70;;;15.30;99.90;;;;;;4958656;29;20198;-49
2023/10/05 09:07:29;;;;;;;8.43;2.63;;;15.30;99.90;;;;;;4959251;29;20164;-39
2023/10/05 09:09:55;;;;;;;7.53;2.53;;;15.40;99.90;;;;;;4958941;28;20195;-41
2023/10/05 09:12:35;;;;;;;11.23;2.60;;;15.40;99.90;;;;;;4958659;29;20682;-44
2023/10/05 09:15:05;;;;;;;7.90;3.10;;;15.50;99.90;;;;;;4958132;29;20164;-43
2023/10/05 09:17:34;;;;;;;7.60;2.53;;;15.50;99.90;;;;;;4956732;29;20227;-45
2023/10/05 09:20:22;;;;;;;6.90;2.83;;;15.60;99.90;;;;;;4958055;28;20201;-44
2023/10/05 09:22:50;;;;;;;12.40;2.67;;;15.60;99.90;;;;;;4957776;28;20736;-40
2023/10/05 09:25:17;;;;;;;7.10;2.87;;;15.60;99.90;;;;;;4958095;28;20274;-42
2023/10/05 09:27:51;;;;;;;9.97;3.20;;;15.70;99.90;;;;;;4958323;28;20575;-43
2023/10/05 09:30:21;;;;;;;10.13;2.37;;;15.70;99.90;;;;;;4957624;28;20305;-44
2023/10/05 09:32:48;;;;;;;5.67;2.30;;;15.70;99.90;;;;;;4957953;28;20299;-43
2023/10/05 09:35:31;;;;;;;7.33;2.37;;;15.80;99.90;;;;;;4957645;29;20195;-44
2023/10/05 09:38:01;;;;;;;7.53;2.10;;;15.90;99.90;;;;;;4958163;29;20619;-43
2023/10/05 09:40:28;;;;;;;8.50;2.30;;;15.90;99.90;;;;;;4957486;28;20231;-43
2023/10/05 09:42:56;;;;;;;8.53;2.30;;;15.90;99.90;;;;;;4957668;29;20595;-45
2023/10/05 09:45:30;;;;;;;12.17;2.93;;;15.90;99.90;;;;;;4957761;28;20176;-42
2023/10/05 09:48:00;;;;;;;8.00;2.83;;;16.00;99.90;;;;;;4957379;29;20176;-42
2023/10/05 09:50:29;;;;;;;12.63;2.70;;;16.00;99.90;;;;;;4957263;28;20697;-43
2023/10/05 09:52:59;;;;;;;7.80;2.50;;;16.00;99.90;;;;;;4957585;28;20192;-41
2023/10/05 09:55:25;;;;;;;10.70;2.70;;;16.00;99.90;;;;;;4957324;28;20568;-44
2023/10/05 09:57:51;;;;;;;8.17;2.53;;;16.10;99.90;;;;;;4956814;28;20215;-44
2023/10/05 10:00:47;;;;;;;6.60;2.10;;;16.10;99.90;;;;;;4956035;29;20632;-43
2023/10/05 10:03:15;;;;;;;12.20;2.67;;;16.10;99.90;;;;;;4957299;29;20734;-48
2023/10/05 10:06:08;;;;;;;7.63;1.90;;;16.10;99.90;;;;;;4957059;28;20644;-46
2023/10/05 10:08:42;;;;;;;8.23;2.10;;;16.20;99.90;;;;;;4957422;29;20516;-49
2023/10/05 10:11:19;;;;;;;9.00;2.53;;;16.10;99.90;;;;;;4957230;28;20230;-48
2023/10/05 10:14:06;;;;;;;9.03;2.40;;;16.10;99.90;;;;;;4957240;28;20176;-47
2023/10/05 10:16:33;;;;;;;7.50;2.27;;;16.20;99.90;;;;;;4957537;29;20250;-46
2023/10/05 10:19:04;;;;;;;7.60;1.97;;;16.30;99.90;;;;;;4956861;29;20266;-49
2023/10/05 10:21:35;;;;;;;6.93;2.10;;;16.30;99.90;;;;;;4956859;29;20651;-48
2023/10/05 10:24:20;;;;;;;9.07;2.20;;;16.30;99.90;;;;;;4957071;29;20592;-46
2023/10/05 10:27:07;;;;;;;9.87;2.27;;;16.40;99.90;;;;;;4956817;28;20160;-47
2023/10/05 10:29:46;;;;;;;8.63;1.93;;;16.40;99.90;;;;;;4956611;28;20587;-48
2023/10/05 10:32:20;;;;;;;13.70;3.47;;;16.30;99.90;;;;;;4955452;29;20222;-47
2023/10/05 10:35:06;;;;;;;7.43;2.23;;;16.30;99.90;;;;;;4956569;29;20183;-47
2023/10/05 10:37:41;;;;;;;6.17;2.27;;;16.30;99.90;;;;;;4956820;28;20535;-47
2023/10/05 10:42:54;;;;;;;7.93;2.90;;;16.30;99.90;;;;;;4956357;29;20202;-49
2023/10/05 10:48:21;;;;;;;8.60;3.57;;;16.30;99.90;;;;;;4951546;29;20223;-47
2023/10/05 10:50:52;;;;;;;8.07;2.07;;;16.30;99.90;;;;;;4956469;28;20206;-46
2023/10/05 10:53:18;;;;;;;10.53;2.60;;;16.30;99.90;;;;;;4956228;29;20246;-47
2023/10/05 10:55:47;;;;;;;7.47;2.00;;;16.40;99.90;;;;;;4956082;29;20266;-47
2023/10/05 10:58:16;;;;;;;10.17;2.40;;;16.40;99.90;;;;;;4956149;28;20191;-47
2023/10/05 11:00:54;;;;;;;11.60;2.97;;;16.50;99.90;;;;;;4954769;28;20204;-47
2023/10/05 11:03:26;;;;;;;9.43;3.30;;;16.60;99.90;;;;;;4955960;29;20199;-46
2023/10/05 11:05:54;;;;;;;12.50;2.83;;;16.50;99.90;;;;;;4956310;28;20182;-48
2023/10/05 11:08:20;;;;;;;7.67;2.40;;;16.60;99.90;;;;;;4953828;28;20284;-47
2023/10/05 11:10:59;;;;;;;8.13;2.30;;;16.70;99.90;;;;;;4954608;28;20200;-47
2023/10/05 11:13:25;;;;;;;8.17;2.20;;;16.70;99.90;;;;;;4956150;28;20254;-48
2023/10/05 11:15:57;;;;;;;8.93;2.60;;;16.70;99.90;;;;;;4956061;29;20211;-45
2023/10/05 11:18:26;;;;;;;10.93;2.67;;;16.70;99.90;;;;;;4955778;28;20171;-47
2023/10/05 11:20:52;;;;;;;8.00;2.50;;;16.80;99.90;;;;;;4955758;28;20200;-49
2023/10/05 11:23:25;;;;;;;8.97;2.70;;;16.80;99.90;;;;;;4954738;29;20215;-49
2023/10/05 11:25:52;;;;;;;10.90;2.37;;;16.80;97.30;;;;;;4955981;28;20234;-46
2023/10/05 11:28:25;;;;;;;7.40;2.30;;;16.80;99.70;;;;;;4955494;29;20196;-48
2023/10/05 11:30:53;;;;;;;10.67;2.70;;;16.90;99.90;;;;;;4955518;28;20208;-47
2023/10/05 11:33:19;;;;;;;10.63;2.77;;;16.90;99.90;;;;;;4954329;29;20187;-45
2023/10/05 11:35:49;;;;;;;10.93;2.87;;;16.90;99.90;;;;;;4955782;29;20190;-46
2023/10/05 11:38:19;;;;;;;11.30;2.27;;;17.00;99.90;;;;;;4955456;28;20819;-48
2023/10/05 11:40:49;;;;;;;7.73;2.70;;;17.00;98.40;;;;;;4954102;28;20226;-48
2023/10/05 11:43:17;;;;;;;9.60;2.97;;;17.10;99.20;;;;;;4955659;28;20278;-48
2023/10/05 11:46:17;;;;;;;12.43;2.63;;;17.20;99.90;;;;;;4955620;28;20271;-48
2023/10/05 11:48:55;;;;;;;8.97;2.40;;;17.30;99.80;;;;;;4970999;28;20164;-47
2023/10/05 11:51:41;;;;;;;9.10;2.77;;;17.40;99.90;;;;;;4955578;28;20640;-46
2023/10/05 11:54:10;;;;;;;9.40;2.43;;;17.50;93.70;;;;;;4955255;29;20176;-47
2023/10/05 11:56:38;;;;;;;8.17;2.37;;;17.60;94.00;;;;;;4955485;28;20190;-46
2023/10/05 11:59:07;;;;;;;7.77;1.87;;;17.60;95.10;;;;;;4955305;28;20549;-47
2023/10/05 12:01:33;;;;;;;10.93;2.27;;;17.70;97.10;;;;;;4955561;28;20266;-48
2023/10/05 12:03:59;;;;;;;8.50;2.10;;;17.80;92.10;;;;;;4953881;29;20581;-47
2023/10/05 12:06:25;;;;;;;6.07;2.00;;;18.00;91.40;;;;;;4953980;29;20258;-49
2023/10/05 12:09:00;;;;;;;5.30;2.10;;;18.00;81.90;;;;;;4955391;28;20180;-47
2023/10/05 12:11:27;;;;;;;6.13;1.87;;;18.10;86.60;;;;;;4955038;28;20679;-49
2023/10/05 12:13:56;;;;;;;6.00;1.80;;;18.20;87.50;;;;;;4955418;29;20516;-43
2023/10/05 12:16:32;;;;;;;5.27;1.80;;;18.20;90.80;;;;;;4955106;28;20652;-48
2023/10/05 12:19:13;;;;;;;7.77;2.07;;;18.20;87.00;;;;;;4954997;28;20195;-49
2023/10/05 12:21:46;;;;;;;5.53;2.00;;;18.30;91.90;;;;;;4957659;29;20279;-46
2023/10/05 12:24:13;;;;;;;7.33;3.00;;;18.30;82.00;;;;;;4958853;28;20207;-48
2023/10/05 12:26:42;;;;;;;9.47;2.10;;;18.20;72.40;;;;;;4958901;28;20232;-47
2023/10/05 12:29:14;;;;;;;4.93;1.63;;;18.30;95.00;;;;;;4958529;28;20266;-48
2023/10/05 12:31:51;;;;;;;5.50;1.60;;;18.30;96.10;;;;;;4973656;28;20242;-47
2023/10/05 12:34:27;;;;;;;8.37;2.03;;;18.40;99.90;;;;;;4958880;28;20238;-47
2023/10/05 12:36:54;;;;;;;4.50;1.40;;;18.40;98.20;;;;;;4958627;28;20174;-49
2023/10/05 12:39:27;;;;;;;5.93;1.77;;;18.50;97.50;;;;;;4958884;28;20589;-47
2023/10/05 12:41:55;;;;;;;5.23;1.50;;;18.60;99.90;;;;;;4958872;28;20317;-49
2023/10/05 12:44:21;;;;;;;5.27;2.10;;;18.60;95.90;;;;;;4958660;29;20683;-49
2023/10/05 12:46:51;;;;;;;5.20;1.50;;;18.60;90.50;;;;;;4958475;28;20179;-48
2023/10/05 12:54:34;;;;;;;6.17;1.50;;;18.60;94.20;;;;;;4995790;28;20214;-42
2023/10/05 12:57:09;;;;;;;5.27;1.70;;;18.60;95.80;;;;;;4997399;28;20186;-43
2023/10/05 12:59:35;;;;;;;5.50;1.83;;;18.60;87.90;;;;;;4997273;28;20194;-44
2023/10/05 13:02:15;;;;;;;7.57;1.93;;;18.60;93.40;;;;;;4997070;28;20650;-41
2023/10/05 13:04:42;;;;;;;4.73;1.57;;;18.70;99.70;;;;;;4981697;28;20168;-41
2023/10/05 13:07:08;;;;;;;7.83;1.67;;;18.80;93.00;;;;;;4996890;28;20654;-44
2023/10/05 13:09:34;;;;;;;7.93;1.90;;;18.90;92.60;;;;;;4979349;28;20214;-43
2023/10/05 13:12:07;;;;;;;7.07;1.97;;;19.00;93.80;;;;;;4997143;28;20217;-44
2023/10/05 13:14:33;;;;;;;6.20;1.90;;;19.10;92.90;;;;;;4997183;28;20229;-41
2023/10/05 13:17:00;;;;;;;6.07;1.80;;;19.10;77.50;;;;;;4996796;28;20179;-41
2023/10/05 13:19:26;;;;;;;4.93;1.70;;;19.20;91.00;;;;;;4996945;28;20263;-43
2023/10/05 13:21:51;;;;;;;5.17;2.17;;;19.20;90.20;;;;;;4979290;28;20194;-43
2023/10/05 13:24:17;;;;;;;3.90;1.60;;;19.20;75.20;;;;;;4996621;28;20670;-44
2023/10/05 13:26:46;;;;;;;7.67;1.90;;;19.30;83.00;;;;;;4996823;28;20186;-43
2023/10/05 13:29:16;;;;;;;5.67;1.60;;;19.30;91.30;;;;;;4996474;28;20684;-44
2023/10/05 13:31:42;;;;;;;5.93;1.70;;;19.30;97.10;;;;;;4995356;28;20654;-44